createdAt,value
2018-01-10T00:00:29.904Z,9.00
2018-01-10T00:01:29.897Z,8.50
2018-01-10T00:02:29.891Z,8.40
2018-01-10T00:03:29.884Z,7.50
2018-01-10T00:04:29.877Z,7.00
2018-01-10T00:05:29.870Z,6.40
2018-01-10T00:06:29.866Z,8.90
2018-01-10T00:07:29.858Z,8.40
2018-01-10T00:08:29.852Z,8.90
2018-01-10T00:09:29.847Z,6.90
2018-01-10T00:10:29.845Z,6.40
2018-01-10T00:11:29.833Z,6.50
2018-01-10T00:12:29.825Z,7.80
2018-01-10T00:13:29.819Z,7.10
2018-01-10T00:14:29.812Z,6.10
2018-01-10T00:15:29.805Z,7.80
2018-01-10T00:16:29.804Z,8.20
2018-01-10T00:17:29.793Z,9.10
2018-01-10T00:18:29.787Z,9.20
2018-01-10T00:19:29.780Z,8.20
2018-01-10T00:20:29.773Z,6.40
2018-01-10T00:21:29.767Z,6.00
2018-01-10T00:22:29.761Z,6.50
2018-01-10T00:23:29.755Z,6.50
2018-01-10T00:24:29.754Z,7.90
2018-01-10T00:25:29.742Z,8.10
2018-01-10T00:26:29.736Z,8.60
2018-01-10T00:27:29.729Z,7.80
2018-01-10T00:28:29.723Z,7.30
2018-01-10T00:29:29.715Z,7.60
2018-01-10T00:30:29.711Z,7.50
2018-01-10T00:31:29.704Z,8.30
2018-01-10T00:32:29.697Z,8.00
2018-01-10T00:33:29.699Z,8.50
2018-01-10T00:34:29.685Z,7.60
2018-01-10T00:35:29.679Z,7.80
2018-01-10T00:36:29.672Z,7.70
2018-01-10T00:37:29.670Z,7.90
2018-01-10T00:38:29.661Z,7.30
2018-01-10T00:39:29.655Z,8.00
2018-01-10T00:40:29.648Z,8.40
2018-01-10T00:41:29.644Z,8.20
2018-01-10T00:42:29.636Z,8.40
2018-01-10T00:43:29.630Z,8.40
2018-01-10T00:44:29.623Z,7.90
2018-01-10T00:45:29.618Z,8.60
2018-01-10T00:46:29.612Z,8.30
2018-01-10T00:47:29.606Z,6.30
2018-01-10T00:48:29.598Z,4.60
2018-01-10T00:49:29.593Z,6.30
2018-01-10T00:50:29.588Z,5.10
2018-01-10T00:51:29.585Z,6.70
2018-01-10T00:52:29.575Z,8.00
2018-01-10T00:53:29.569Z,7.70
2018-01-10T00:54:29.562Z,8.00
2018-01-10T00:55:29.557Z,7.70
2018-01-10T00:56:29.551Z,7.70
2018-01-10T00:57:29.543Z,8.00
2018-01-10T00:58:29.539Z,7.60
2018-01-10T00:59:29.533Z,7.70
2018-01-10T01:00:29.526Z,8.20
2018-01-10T01:01:29.520Z,7.40
2018-01-10T01:02:29.514Z,7.00
2018-01-10T01:03:29.507Z,7.80
2018-01-10T01:04:29.502Z,7.30
2018-01-10T01:05:29.497Z,8.20
2018-01-10T01:06:29.491Z,7.90
2018-01-10T01:07:29.485Z,7.50
2018-01-10T01:08:29.478Z,7.80
2018-01-10T01:09:29.474Z,7.10
2018-01-10T01:10:29.467Z,7.30
2018-01-10T01:11:29.464Z,7.70
2018-01-10T01:12:29.455Z,8.60
2018-01-10T01:13:29.449Z,8.30
2018-01-10T01:14:29.449Z,8.40
2018-01-10T01:15:29.438Z,5.50
2018-01-10T01:16:29.432Z,5.80
2018-01-10T01:17:29.425Z,5.20
2018-01-10T01:18:29.424Z,6.50
2018-01-10T01:19:29.414Z,7.10
2018-01-10T01:20:29.407Z,7.40
2018-01-10T01:21:29.401Z,7.30
2018-01-10T01:22:29.397Z,4.50
2018-01-10T01:23:29.390Z,5.80
2018-01-10T01:24:29.385Z,7.10
2018-01-10T01:25:29.378Z,7.90
2018-01-10T01:26:29.373Z,5.70
2018-01-10T01:27:29.370Z,4.90
2018-01-10T01:28:29.360Z,5.70
2018-01-10T01:29:29.356Z,6.10
2018-01-10T01:30:29.350Z,7.80
2018-01-10T01:31:29.345Z,7.10
2018-01-10T01:32:29.338Z,7.30
2018-01-10T01:33:29.335Z,6.80
2018-01-10T01:34:29.328Z,6.20
2018-01-10T01:35:29.322Z,7.20
2018-01-10T01:36:29.315Z,7.50
2018-01-10T01:37:29.310Z,7.50
2018-01-10T01:38:29.304Z,8.10
2018-01-10T01:39:29.297Z,7.80
2018-01-10T01:40:29.291Z,5.60
2018-01-10T01:41:29.286Z,5.80
2018-01-10T01:42:29.281Z,5.40
2018-01-10T01:43:29.276Z,7.20
2018-01-10T01:44:29.269Z,7.10
2018-01-10T01:45:29.264Z,7.80
2018-01-10T01:46:29.259Z,7.50
2018-01-10T01:47:29.253Z,6.00
2018-01-10T01:48:29.246Z,5.40
2018-01-10T01:49:29.241Z,6.80
2018-01-10T01:50:29.235Z,5.50
2018-01-10T01:51:29.230Z,6.30
2018-01-10T01:52:29.223Z,6.10
2018-01-10T01:53:29.218Z,7.00
2018-01-10T01:54:29.212Z,7.40
2018-01-10T01:55:29.206Z,7.90
2018-01-10T01:56:29.198Z,7.90
2018-01-10T01:57:29.194Z,7.20
2018-01-10T01:58:29.189Z,6.90
2018-01-10T01:59:29.184Z,7.30
2018-01-10T02:00:29.177Z,7.60
2018-01-10T02:01:29.172Z,7.60
2018-01-10T02:02:29.166Z,7.50
2018-01-10T02:03:29.161Z,7.80
2018-01-10T02:04:29.155Z,7.90
2018-01-10T02:05:29.151Z,6.90
2018-01-10T02:06:29.145Z,7.70
2018-01-10T02:07:29.139Z,7.10
2018-01-10T02:08:29.133Z,4.80
2018-01-10T02:09:29.127Z,6.50
2018-01-10T02:10:29.121Z,7.10
2018-01-10T02:11:29.116Z,7.20
2018-01-10T02:12:29.109Z,7.60
2018-01-10T02:13:29.105Z,8.10
2018-01-10T02:14:29.099Z,7.40
2018-01-10T02:15:29.093Z,6.10
2018-01-10T02:16:29.087Z,6.50
2018-01-10T02:17:29.082Z,4.90
2018-01-10T02:18:29.084Z,5.60
2018-01-10T02:19:29.073Z,6.30
2018-01-10T02:20:29.066Z,6.20
2018-01-10T02:21:29.060Z,7.00
2018-01-10T02:22:29.055Z,8.20
2018-01-10T02:23:29.049Z,7.80
2018-01-10T02:24:29.042Z,7.60
2018-01-10T02:25:29.038Z,7.40
2018-01-10T02:26:29.031Z,7.30
2018-01-10T02:27:29.027Z,4.60
2018-01-10T02:28:29.019Z,6.10
2018-01-10T02:29:29.014Z,5.00
2018-01-10T02:30:29.009Z,4.10
2018-01-10T02:31:29.004Z,5.60
2018-01-10T02:32:29.000Z,6.20
2018-01-10T02:33:28.991Z,6.70
2018-01-10T02:34:28.987Z,7.40
2018-01-10T02:35:28.981Z,5.80
2018-01-10T02:36:28.975Z,5.10
2018-01-10T02:37:28.969Z,6.70
2018-01-10T02:38:28.963Z,7.30
2018-01-10T02:39:28.959Z,7.20
2018-01-10T02:40:28.952Z,5.60
2018-01-10T02:41:28.945Z,5.60
2018-01-10T02:42:28.941Z,5.00
2018-01-10T02:43:28.939Z,4.70
2018-01-10T02:44:28.929Z,6.80
2018-01-10T02:45:28.922Z,7.20
2018-01-10T02:46:28.916Z,8.40
2018-01-10T02:47:28.912Z,6.30
2018-01-10T02:48:28.905Z,5.20
2018-01-10T02:49:28.899Z,5.40
2018-01-10T02:50:28.893Z,6.10
2018-01-10T02:51:28.891Z,7.70
2018-01-10T02:52:28.881Z,6.80
2018-01-10T02:53:28.875Z,7.10
2018-01-10T02:54:28.870Z,6.10
2018-01-10T02:55:28.863Z,5.20
2018-01-10T02:56:28.858Z,6.40
2018-01-10T02:57:28.852Z,7.70
2018-01-10T02:58:28.845Z,5.70
2018-01-10T02:59:28.840Z,5.90
2018-01-10T03:00:28.833Z,4.60
2018-01-10T03:01:28.827Z,6.70
2018-01-10T03:02:28.822Z,7.80
2018-01-10T03:03:28.817Z,7.30
2018-01-10T03:04:28.811Z,6.10
2018-01-10T03:05:28.804Z,5.90
2018-01-10T03:06:28.798Z,4.40
2018-01-10T03:07:28.793Z,5.50
2018-01-10T03:08:28.785Z,7.20
2018-01-10T03:09:28.781Z,7.50
2018-01-10T03:10:28.776Z,6.60
2018-01-10T03:11:28.769Z,7.50
2018-01-10T03:12:28.764Z,7.40
2018-01-10T03:13:28.757Z,7.00
2018-01-10T03:14:28.751Z,7.10
2018-01-10T03:15:28.747Z,7.50
2018-01-10T03:16:28.739Z,7.10
2018-01-10T03:17:28.734Z,6.80
2018-01-10T03:18:28.728Z,5.80
2018-01-10T03:19:28.724Z,4.90
2018-01-10T03:20:28.720Z,6.10
2018-01-10T03:21:28.710Z,5.30
2018-01-10T03:22:28.704Z,5.10
2018-01-10T03:23:28.700Z,5.50
2018-01-10T03:24:28.694Z,7.20
2018-01-10T03:25:28.687Z,6.80
2018-01-10T03:26:28.682Z,7.10
2018-01-10T03:27:28.677Z,6.70
2018-01-10T03:28:28.670Z,6.90
2018-01-10T03:29:28.666Z,6.80
2018-01-10T03:30:28.661Z,5.20
2018-01-10T03:31:28.656Z,5.20
2018-01-10T03:32:28.647Z,6.60
2018-01-10T03:33:28.642Z,7.00
2018-01-10T03:34:28.636Z,5.70
2018-01-10T03:35:28.631Z,4.90
2018-01-10T03:36:28.624Z,6.80
2018-01-10T03:37:28.619Z,6.80
2018-01-10T03:38:28.613Z,7.10
2018-01-10T03:39:28.607Z,6.30
2018-01-10T03:40:28.601Z,5.20
2018-01-10T03:41:28.596Z,5.20
2018-01-10T03:42:28.589Z,5.40
2018-01-10T03:43:28.584Z,6.80
2018-01-10T03:44:28.578Z,6.60
2018-01-10T03:45:28.572Z,6.70
2018-01-10T03:46:28.568Z,4.50
2018-01-10T03:47:28.561Z,4.70
2018-01-10T03:48:28.556Z,5.70
2018-01-10T03:49:28.551Z,5.30
2018-01-10T03:50:28.545Z,5.00
2018-01-10T03:51:28.539Z,5.40
2018-01-10T03:52:28.533Z,6.80
2018-01-10T03:53:28.528Z,7.50
2018-01-10T03:54:28.521Z,6.10
2018-01-10T03:55:28.516Z,6.60
2018-01-10T03:56:28.510Z,6.50
2018-01-10T03:57:28.505Z,7.70
2018-01-10T03:58:28.499Z,6.50
2018-01-10T03:59:28.493Z,7.20
2018-01-10T04:00:28.486Z,7.80
2018-01-10T04:01:28.482Z,7.70
2018-01-10T04:02:28.474Z,8.20
2018-01-10T04:03:28.470Z,7.00
2018-01-10T04:04:28.465Z,5.20
2018-01-10T04:05:28.459Z,5.20
2018-01-10T04:06:28.453Z,6.90
2018-01-10T04:07:28.448Z,6.80
2018-01-10T04:08:28.442Z,5.80
2018-01-10T04:09:28.437Z,5.20
2018-01-10T04:10:28.431Z,4.70
2018-01-10T04:11:28.425Z,5.50
2018-01-10T04:12:28.420Z,4.70
2018-01-10T04:13:28.414Z,6.20
2018-01-10T04:14:28.409Z,6.10
2018-01-10T04:15:28.403Z,6.60
2018-01-10T04:16:28.396Z,6.70
2018-01-10T04:17:28.392Z,7.20
2018-01-10T04:18:28.384Z,8.30
2018-01-10T04:19:28.380Z,7.30
2018-01-10T04:20:28.374Z,8.10
2018-01-10T04:21:28.419Z,7.80
2018-01-10T04:22:28.363Z,7.90
2018-01-10T04:23:28.359Z,7.60
2018-01-10T04:24:28.353Z,5.60
2018-01-10T04:25:28.347Z,5.80
2018-01-10T04:26:28.340Z,6.60
2018-01-10T04:27:28.335Z,7.10
2018-01-10T04:28:28.330Z,8.10
2018-01-10T04:29:28.325Z,7.40
2018-01-10T04:30:28.318Z,8.80
2018-01-10T04:31:28.313Z,8.40
2018-01-10T04:32:28.306Z,5.00
2018-01-10T04:33:28.301Z,6.80
2018-01-10T04:34:28.297Z,7.90
2018-01-10T04:35:28.290Z,8.10
2018-01-10T04:36:28.285Z,7.70
2018-01-10T04:37:28.279Z,8.30
2018-01-10T04:38:28.275Z,8.00
2018-01-10T04:39:28.270Z,6.70
2018-01-10T04:40:28.263Z,6.50
2018-01-10T04:41:28.256Z,7.80
2018-01-10T04:42:28.250Z,8.00
2018-01-10T04:43:28.246Z,7.40
2018-01-10T04:44:28.241Z,7.80
2018-01-10T04:45:28.239Z,8.10
2018-01-10T04:46:28.229Z,8.40
2018-01-10T04:47:28.223Z,7.40
2018-01-10T04:48:28.217Z,8.40
2018-01-10T04:49:28.213Z,8.00
2018-01-10T04:50:28.206Z,7.50
2018-01-10T04:51:28.202Z,7.60
2018-01-10T04:52:28.195Z,7.20
2018-01-10T04:53:28.191Z,7.80
2018-01-10T04:54:28.185Z,7.30
2018-01-10T04:55:28.182Z,7.40
2018-01-10T04:56:28.176Z,7.80
2018-01-10T04:57:28.168Z,6.90
2018-01-10T04:58:28.163Z,7.30
2018-01-10T04:59:28.157Z,7.20
2018-01-10T05:00:28.151Z,6.70
2018-01-10T05:01:28.146Z,8.90
2018-01-10T05:02:28.140Z,7.10
2018-01-10T05:03:28.136Z,7.50
2018-01-10T05:04:28.129Z,8.30
2018-01-10T05:05:28.124Z,8.00
2018-01-10T05:06:28.120Z,8.50
2018-01-10T05:07:28.114Z,7.90
2018-01-10T05:08:28.109Z,7.40
2018-01-10T05:09:28.108Z,7.70
2018-01-10T05:10:28.098Z,8.10
2018-01-10T05:11:28.131Z,7.70
2018-01-10T05:12:28.086Z,7.20
2018-01-10T05:13:28.080Z,8.10
2018-01-10T05:14:28.101Z,8.10
2018-01-10T05:15:28.070Z,7.70
2018-01-10T05:16:28.064Z,8.10
2018-01-10T05:17:28.060Z,6.30
2018-01-10T05:18:28.054Z,5.90
2018-01-10T05:19:28.048Z,5.10
2018-01-10T05:20:28.043Z,5.20
2018-01-10T05:21:28.038Z,6.70
2018-01-10T05:22:28.032Z,7.70
2018-01-10T05:23:28.031Z,7.70
2018-01-10T05:24:28.021Z,7.60
2018-01-10T05:25:28.017Z,8.10
2018-01-10T05:26:28.010Z,7.90
2018-01-10T05:27:28.005Z,7.30
2018-01-10T05:28:27.999Z,8.30
2018-01-10T05:29:27.995Z,7.60
2018-01-10T05:30:27.989Z,5.90
2018-01-10T05:31:27.984Z,7.90
2018-01-10T05:32:27.978Z,7.90
2018-01-10T05:33:27.973Z,7.60
2018-01-10T05:34:27.968Z,7.40
2018-01-10T05:35:27.962Z,8.30
2018-01-10T05:36:27.956Z,7.40
2018-01-10T05:37:27.955Z,7.80
2018-01-10T05:38:27.946Z,7.80
2018-01-10T05:39:27.940Z,7.30
2018-01-10T05:40:27.934Z,7.80
2018-01-10T05:41:27.930Z,8.00
2018-01-10T05:42:27.924Z,7.50
2018-01-10T05:43:27.919Z,6.60
2018-01-10T05:44:27.914Z,6.50
2018-01-10T05:45:27.909Z,6.10
2018-01-10T05:46:27.903Z,6.70
2018-01-10T05:47:27.897Z,7.40
2018-01-10T05:48:27.893Z,7.70
2018-01-10T05:49:27.886Z,8.10
2018-01-10T05:50:27.880Z,7.30
2018-01-10T05:51:27.878Z,7.70
2018-01-10T05:52:27.869Z,8.10
2018-01-10T05:53:27.863Z,7.50
2018-01-10T05:54:27.859Z,8.00
2018-01-10T05:55:27.855Z,8.10
2018-01-10T05:56:27.849Z,7.70
2018-01-10T05:57:27.842Z,7.50
2018-01-10T05:58:27.839Z,7.40
2018-01-10T05:59:27.833Z,6.50
2018-01-10T06:00:27.827Z,7.90
2018-01-10T06:01:27.821Z,6.60
2018-01-10T06:02:27.817Z,6.80
2018-01-10T06:03:27.811Z,7.80
2018-01-10T06:04:27.806Z,7.10
2018-01-10T06:05:27.799Z,7.00
2018-01-10T06:06:27.794Z,7.20
2018-01-10T06:07:27.790Z,8.00
2018-01-10T06:08:27.784Z,8.00
2018-01-10T06:09:27.780Z,7.40
2018-01-10T06:10:27.774Z,6.20
2018-01-10T06:11:27.769Z,5.60
2018-01-10T06:12:27.763Z,6.10
2018-01-10T06:13:27.758Z,7.50
2018-01-10T06:14:27.752Z,7.20
2018-01-10T06:15:27.747Z,7.50
2018-01-10T06:16:27.742Z,8.50
2018-01-10T06:17:27.736Z,4.90
2018-01-10T06:18:27.731Z,6.20
2018-01-10T06:19:27.727Z,6.00
2018-01-10T06:20:27.720Z,8.10
2018-01-10T06:21:27.715Z,8.40
2018-01-10T06:22:27.709Z,7.50
2018-01-10T06:23:27.706Z,5.40
2018-01-10T06:24:27.698Z,5.90
2018-01-10T06:25:27.692Z,5.00
2018-01-10T06:26:27.689Z,7.20
2018-01-10T06:27:27.683Z,8.40
2018-01-10T06:28:27.676Z,8.00
2018-01-10T06:29:27.672Z,8.60
2018-01-10T06:30:27.666Z,5.60
2018-01-10T06:31:27.662Z,5.60
2018-01-10T06:32:27.655Z,4.30
2018-01-10T06:33:27.651Z,6.70
2018-01-10T06:34:27.646Z,7.10
2018-01-10T06:35:27.641Z,7.70
2018-01-10T06:36:27.634Z,7.30
2018-01-10T06:37:27.628Z,7.50
2018-01-10T06:38:27.624Z,5.80
2018-01-10T06:39:27.619Z,6.10
2018-01-10T06:40:27.612Z,7.30
2018-01-10T06:41:27.606Z,7.70
2018-01-10T06:42:27.601Z,9.30
2018-01-10T06:43:27.597Z,7.50
2018-01-10T06:44:27.593Z,6.50
2018-01-10T06:45:27.586Z,7.10
2018-01-10T06:46:27.581Z,7.30
2018-01-10T06:47:27.577Z,7.20
2018-01-10T06:48:27.570Z,8.00
2018-01-10T06:49:27.565Z,7.40
2018-01-10T06:50:27.560Z,6.60
2018-01-10T06:51:27.554Z,5.70
2018-01-10T06:52:27.549Z,6.20
2018-01-10T06:53:27.543Z,7.30
2018-01-10T06:54:27.537Z,7.20
2018-01-10T06:55:27.533Z,7.50
2018-01-10T06:56:27.526Z,8.40
2018-01-10T06:57:27.521Z,7.70
2018-01-10T06:58:27.515Z,5.00
2018-01-10T06:59:27.510Z,5.50
2018-01-10T07:00:27.505Z,5.90
2018-01-10T07:01:27.501Z,7.00
2018-01-10T07:02:27.495Z,5.40
2018-01-10T07:03:27.490Z,6.60
2018-01-10T07:04:27.488Z,7.40
2018-01-10T07:05:27.478Z,7.70
2018-01-10T07:06:27.472Z,6.20
2018-01-10T07:07:27.468Z,6.20
2018-01-10T07:08:27.461Z,7.40
2018-01-10T07:09:27.456Z,7.00
2018-01-10T07:10:27.450Z,8.00
2018-01-10T07:11:27.447Z,7.90
2018-01-10T07:12:27.441Z,7.20
2018-01-10T07:13:27.436Z,7.20
2018-01-10T07:14:27.430Z,7.00
2018-01-10T07:15:27.424Z,7.60
2018-01-10T07:16:27.418Z,7.80
2018-01-10T07:17:27.413Z,4.90
2018-01-10T07:18:27.408Z,6.40
2018-01-10T07:19:27.407Z,7.80
2018-01-10T07:20:27.398Z,7.90
2018-01-10T07:21:27.391Z,7.10
2018-01-10T07:22:27.387Z,7.40
2018-01-10T07:23:27.382Z,6.50
2018-01-10T07:24:27.377Z,4.90
2018-01-10T07:25:27.372Z,6.10
2018-01-10T07:26:27.366Z,6.70
2018-01-10T07:27:27.364Z,8.00
2018-01-10T07:28:27.354Z,7.70
2018-01-10T07:29:27.350Z,7.70
2018-01-10T07:30:27.344Z,7.60
2018-01-10T07:31:27.340Z,7.50
2018-01-10T07:32:27.334Z,7.70
2018-01-10T07:33:27.328Z,7.20
2018-01-10T07:34:27.323Z,7.60
2018-01-10T07:35:27.318Z,7.30
2018-01-10T07:36:27.312Z,7.40
2018-01-10T07:37:27.307Z,7.80
2018-01-10T07:38:27.308Z,6.40
2018-01-10T07:39:27.297Z,8.00
2018-01-10T07:40:27.293Z,7.90
2018-01-10T07:41:27.286Z,11.50
2018-01-10T07:42:27.281Z,11.30
2018-01-10T07:43:27.276Z,10.60
2018-01-10T07:44:27.269Z,7.40
2018-01-10T07:45:27.264Z,9.40
2018-01-10T07:46:27.260Z,11.70
2018-01-10T07:47:27.255Z,12.60
2018-01-10T07:48:27.250Z,8.20
2018-01-10T07:49:27.243Z,7.30
2018-01-10T07:50:27.240Z,8.80
2018-01-10T07:51:27.235Z,7.80
2018-01-10T07:52:27.229Z,8.30
2018-01-10T07:53:27.223Z,7.50
2018-01-10T07:54:27.218Z,8.50
2018-01-10T07:55:27.248Z,9.80
2018-01-10T07:56:27.207Z,8.90
2018-01-10T07:57:27.202Z,8.70
2018-01-10T07:58:27.198Z,9.60
2018-01-10T07:59:27.193Z,8.40
2018-01-10T08:00:27.186Z,8.70
2018-01-10T08:01:27.181Z,10.20
2018-01-10T08:02:27.178Z,9.30
2018-01-10T08:03:27.173Z,8.80
2018-01-10T08:04:27.165Z,9.50
2018-01-10T08:05:27.162Z,8.50
2018-01-10T08:06:27.156Z,8.60
2018-01-10T08:07:27.150Z,8.80
2018-01-10T08:08:27.145Z,7.70
2018-01-10T08:09:27.141Z,7.90
2018-01-10T08:10:27.136Z,8.20
2018-01-10T08:11:27.130Z,8.30
2018-01-10T08:12:27.126Z,7.60
2018-01-10T08:13:27.121Z,8.10
2018-01-10T08:14:27.117Z,7.80
2018-01-10T08:15:27.112Z,7.10
2018-01-10T08:16:27.106Z,7.10
2018-01-10T08:17:27.100Z,6.60
2018-01-10T08:18:27.095Z,7.00
2018-01-10T08:19:27.091Z,6.80
2018-01-10T08:20:27.085Z,7.40
2018-01-10T08:21:27.084Z,6.10
2018-01-10T08:22:27.075Z,5.90
2018-01-10T08:23:27.071Z,6.90
2018-01-10T08:24:27.066Z,5.80
2018-01-10T08:25:27.060Z,6.70
2018-01-10T08:26:27.055Z,7.00
2018-01-10T08:27:27.050Z,6.80
2018-01-10T08:28:27.044Z,6.60
2018-01-10T08:29:27.040Z,7.20
2018-01-10T08:30:27.037Z,6.90
2018-01-10T08:31:27.030Z,7.10
2018-01-10T08:32:27.024Z,6.80
2018-01-10T08:33:27.020Z,7.10
2018-01-10T08:34:27.015Z,6.20
2018-01-10T08:35:27.011Z,6.70
2018-01-10T08:36:27.005Z,6.20
2018-01-10T08:37:27.001Z,7.00
2018-01-10T08:38:27.001Z,6.20
2018-01-10T08:39:26.990Z,6.00
2018-01-10T08:40:26.987Z,5.80
2018-01-10T08:41:26.982Z,6.70
2018-01-10T08:42:26.977Z,6.80
2018-01-10T08:43:26.972Z,6.70
2018-01-10T08:44:26.967Z,6.60
2018-01-10T08:45:26.962Z,6.00
2018-01-10T08:46:26.957Z,7.10
2018-01-10T08:47:26.952Z,6.60
2018-01-10T08:48:26.946Z,6.70
2018-01-10T08:49:26.943Z,7.20
2018-01-10T08:50:26.939Z,6.60
2018-01-10T08:51:26.934Z,7.10
2018-01-10T08:52:26.928Z,6.50
2018-01-10T08:53:26.923Z,6.40
2018-01-10T08:54:26.919Z,6.90
2018-01-10T08:55:26.914Z,5.90
2018-01-10T08:56:26.909Z,6.70
2018-01-10T08:57:26.904Z,6.90
2018-01-10T08:58:26.901Z,7.40
2018-01-10T08:59:26.897Z,7.50
2018-01-10T09:00:26.891Z,7.80
2018-01-10T09:01:26.888Z,8.10
2018-01-10T09:02:26.881Z,8.50
2018-01-10T09:03:26.877Z,8.50
2018-01-10T09:04:26.877Z,8.30
2018-01-10T09:05:26.868Z,9.10
2018-01-10T09:06:26.864Z,7.90
2018-01-10T09:07:26.858Z,8.40
2018-01-10T09:08:26.852Z,8.60
2018-01-10T09:09:26.851Z,8.00
2018-01-10T09:10:26.843Z,8.30
2018-01-10T09:11:26.840Z,9.10
2018-01-10T09:12:26.835Z,8.00
2018-01-10T09:13:26.830Z,7.70
2018-01-10T09:14:26.825Z,7.00
2018-01-10T09:15:26.821Z,7.40
2018-01-10T09:16:26.817Z,7.50
2018-01-10T09:17:26.812Z,7.40
2018-01-10T09:18:26.807Z,8.20
2018-01-10T09:19:26.803Z,8.20
2018-01-10T09:20:26.796Z,7.20
2018-01-10T09:21:26.793Z,6.90
2018-01-10T09:22:26.789Z,6.50
2018-01-10T09:23:26.786Z,7.20
2018-01-10T09:24:26.779Z,6.40
2018-01-10T09:25:26.775Z,7.20
2018-01-10T09:26:26.771Z,6.30
2018-01-10T09:27:26.765Z,6.70
2018-01-10T09:28:26.760Z,6.10
2018-01-10T09:29:26.757Z,7.20
2018-01-10T09:30:26.753Z,6.60
2018-01-10T09:31:26.748Z,6.90
2018-01-10T09:32:26.742Z,6.00
2018-01-10T09:33:26.739Z,6.50
2018-01-10T09:34:26.735Z,6.70
2018-01-10T09:35:26.729Z,6.50
2018-01-10T09:36:26.724Z,7.00
2018-01-10T09:37:26.721Z,7.00
2018-01-10T09:38:26.715Z,5.80
2018-01-10T09:39:26.712Z,6.60
2018-01-10T09:40:26.707Z,6.50
2018-01-10T09:41:26.704Z,6.30
2018-01-10T09:42:26.697Z,6.10
2018-01-10T09:43:26.693Z,5.60
2018-01-10T09:44:26.690Z,6.30
2018-01-10T09:45:26.684Z,7.00
2018-01-10T09:46:26.680Z,6.50
2018-01-10T09:47:26.678Z,5.80
2018-01-10T09:48:26.671Z,6.00
2018-01-10T09:49:26.668Z,5.10
2018-01-10T09:50:26.664Z,5.70
2018-01-10T09:51:26.659Z,5.30
2018-01-10T09:52:26.653Z,5.50
2018-01-10T09:53:26.650Z,5.40
2018-01-10T09:54:26.647Z,5.10
2018-01-10T09:55:26.641Z,6.00
2018-01-10T09:56:26.637Z,5.80
2018-01-10T09:57:26.632Z,5.90
2018-01-10T09:58:26.628Z,5.90
2018-01-10T09:59:26.624Z,6.20
2018-01-10T10:00:26.620Z,6.50
2018-01-10T10:01:26.616Z,7.00
2018-01-10T10:02:26.612Z,6.80
2018-01-10T10:03:26.608Z,5.80
2018-01-10T10:04:26.604Z,5.20
2018-01-10T10:05:26.599Z,5.70
2018-01-10T10:06:26.595Z,5.50
2018-01-10T10:07:26.592Z,5.30
2018-01-10T10:08:26.587Z,5.00
2018-01-10T10:09:26.583Z,5.40
2018-01-10T10:10:26.578Z,5.30
2018-01-10T10:11:26.573Z,5.20
2018-01-10T10:12:26.570Z,4.90
2018-01-10T10:13:26.566Z,4.90
2018-01-10T10:14:26.562Z,4.80
2018-01-10T10:15:26.559Z,5.30
2018-01-10T10:16:26.556Z,5.00
2018-01-10T10:17:26.549Z,5.70
2018-01-10T10:18:26.546Z,4.90
2018-01-10T10:19:26.543Z,5.30
2018-01-10T10:20:26.537Z,5.00
2018-01-10T10:21:26.534Z,5.30
2018-01-10T10:22:26.529Z,5.30
2018-01-10T10:23:26.525Z,4.90
2018-01-10T10:24:26.522Z,4.80
2018-01-10T10:25:26.517Z,5.10
2018-01-10T10:26:26.515Z,5.20
2018-01-10T10:27:26.511Z,5.90
2018-01-10T10:28:26.509Z,5.10
2018-01-10T10:29:26.503Z,4.40
2018-01-10T10:30:26.499Z,4.60
2018-01-10T10:31:26.495Z,4.70
2018-01-10T10:32:26.491Z,4.40
2018-01-10T10:33:26.486Z,4.80
2018-01-10T10:34:26.483Z,4.80
2018-01-10T10:35:26.479Z,4.60
2018-01-10T10:36:26.476Z,5.00
2018-01-10T10:37:26.471Z,4.90
2018-01-10T10:38:26.468Z,4.20
2018-01-10T10:39:26.463Z,4.80
2018-01-10T10:40:26.459Z,4.10
2018-01-10T10:41:26.461Z,5.30
2018-01-10T10:42:26.455Z,5.20
2018-01-10T10:43:26.448Z,4.90
2018-01-10T10:44:26.449Z,4.40
2018-01-10T10:45:26.440Z,4.70
2018-01-10T10:46:26.443Z,4.50
2018-01-10T10:47:26.433Z,4.30
2018-01-10T10:48:26.429Z,4.60
2018-01-10T10:49:26.424Z,4.00
2018-01-10T10:50:26.421Z,4.20
2018-01-10T10:51:26.417Z,4.70
2018-01-10T10:52:26.412Z,4.70
2018-01-10T10:53:26.408Z,4.80
2018-01-10T10:54:26.406Z,4.20
2018-01-10T10:55:26.402Z,4.10
2018-01-10T10:56:26.398Z,4.10
2018-01-10T10:57:26.395Z,4.30
2018-01-10T10:58:26.391Z,4.10
2018-01-10T10:59:26.386Z,4.10
2018-01-10T11:00:26.387Z,4.10
2018-01-10T11:01:26.379Z,4.60
2018-01-10T11:02:26.376Z,4.00
2018-01-10T11:03:26.372Z,5.10
2018-01-10T11:04:26.367Z,4.60
2018-01-10T11:05:26.364Z,6.10
2018-01-10T11:06:26.361Z,5.60
2018-01-10T11:07:26.357Z,4.30
2018-01-10T11:08:26.354Z,5.40
2018-01-10T11:09:26.350Z,7.10
2018-01-10T11:10:26.345Z,4.60
2018-01-10T11:11:26.342Z,4.30
2018-01-10T11:12:26.338Z,7.20
2018-01-10T11:13:26.336Z,3.80
2018-01-10T11:14:26.333Z,4.10
2018-01-10T11:15:26.331Z,3.80
2018-01-10T11:16:26.327Z,3.20
2018-01-10T11:17:26.322Z,3.30
2018-01-10T11:18:26.321Z,3.30
2018-01-10T11:19:26.320Z,3.50
2018-01-10T11:20:26.311Z,3.40
2018-01-10T11:21:26.315Z,3.20
2018-01-10T11:22:26.305Z,3.60
2018-01-10T11:23:26.304Z,3.40
2018-01-10T11:24:26.300Z,2.90
2018-01-10T11:25:26.294Z,2.60
2018-01-10T11:26:26.293Z,2.70
2018-01-10T11:27:26.291Z,2.50
2018-01-10T11:31:49.678Z,2.20
2018-01-10T11:32:49.674Z,2.10
2018-01-10T11:33:49.673Z,2.20
2018-01-10T11:34:49.668Z,2.40
2018-01-10T11:35:49.665Z,2.60
2018-01-10T11:36:49.662Z,2.30
2018-01-10T11:37:49.660Z,2.20
2018-01-10T11:38:49.657Z,2.10
2018-01-10T11:39:49.654Z,1.90
2018-01-10T11:40:49.651Z,2.00
2018-01-10T11:41:49.648Z,2.30
2018-01-10T11:42:49.645Z,2.00
2018-01-10T11:43:49.643Z,2.00
2018-01-10T11:44:49.640Z,2.10
2018-01-10T11:45:49.638Z,2.00
2018-01-10T11:46:49.634Z,2.10
2018-01-10T11:47:49.630Z,2.00
2018-01-10T11:48:49.628Z,1.90
2018-01-10T11:49:49.629Z,1.90
2018-01-10T11:50:49.622Z,1.80
2018-01-10T11:51:49.619Z,1.70
2018-01-10T11:52:49.617Z,1.50
2018-01-10T11:53:49.615Z,1.80
2018-01-10T11:54:49.665Z,1.60
2018-01-10T11:55:49.611Z,1.80
2018-01-10T11:56:49.607Z,1.60
2018-01-10T11:57:49.606Z,1.50
2018-01-10T11:58:49.603Z,1.80
2018-01-10T11:59:49.600Z,2.00
2018-01-10T12:00:49.598Z,1.20
2018-01-10T12:01:49.596Z,1.50
2018-01-10T12:02:49.592Z,1.40
2018-01-10T12:03:49.591Z,1.50
2018-01-10T12:04:49.590Z,1.30
2018-01-10T12:05:49.587Z,1.30
2018-01-10T12:06:49.585Z,1.50
2018-01-10T12:07:49.582Z,1.30
2018-01-10T12:08:49.581Z,1.30
2018-01-10T12:09:49.580Z,1.40
2018-01-10T12:10:49.576Z,1.40
2018-01-10T12:11:49.574Z,1.40
2018-01-10T12:12:49.573Z,1.20
2018-01-10T12:13:49.568Z,1.30
2018-01-10T12:14:49.565Z,1.60
2018-01-10T12:15:49.563Z,1.40
2018-01-10T12:16:49.561Z,1.70
2018-01-10T12:17:49.558Z,1.40
2018-01-10T12:18:49.556Z,1.60
2018-01-10T12:19:49.553Z,1.40
2018-01-10T12:20:49.550Z,1.10
2018-01-10T12:21:49.548Z,1.40
2018-01-10T12:22:49.545Z,1.60
2018-01-10T12:23:49.543Z,1.70
2018-01-10T12:24:49.559Z,1.20
2018-01-10T12:25:49.537Z,1.80
2018-01-10T12:26:49.532Z,2.20
2018-01-10T12:27:49.532Z,1.80
2018-01-10T12:28:49.529Z,1.70
2018-01-10T12:29:49.526Z,2.20
2018-01-10T12:30:49.529Z,1.40
2018-01-10T12:31:49.524Z,1.20
2018-01-10T12:32:49.519Z,1.30
2018-01-10T12:33:49.515Z,1.50
2018-01-10T12:34:49.513Z,1.70
2018-01-10T12:35:49.508Z,1.10
2018-01-10T12:36:49.511Z,1.30
2018-01-10T12:37:49.506Z,1.40
2018-01-10T12:38:49.533Z,1.40
2018-01-10T12:39:49.500Z,1.60
2018-01-10T12:40:49.497Z,1.30
2018-01-10T12:41:49.495Z,1.30
2018-01-10T12:42:49.493Z,1.30
2018-01-10T12:43:49.489Z,1.60
2018-01-10T12:44:49.488Z,1.40
2018-01-10T12:45:49.486Z,1.60
2018-01-10T12:46:49.482Z,1.70
2018-01-10T12:47:49.481Z,1.30
2018-01-10T12:48:49.489Z,1.40
2018-01-10T12:49:49.476Z,1.20
2018-01-10T12:50:49.473Z,1.20
2018-01-10T12:51:49.473Z,1.30
2018-01-10T12:52:49.470Z,1.70
2018-01-10T12:53:49.467Z,1.20
2018-01-10T12:54:49.463Z,1.10
2018-01-10T12:55:49.463Z,1.50
2018-01-10T12:56:49.461Z,1.20
2018-01-10T12:57:49.458Z,1.00
2018-01-10T12:58:49.456Z,1.20
2018-01-10T12:59:49.453Z,1.40
2018-01-10T13:00:49.451Z,1.10
2018-01-10T13:01:49.449Z,1.30
2018-01-10T13:02:49.447Z,1.00
2018-01-10T13:03:49.445Z,1.20
2018-01-10T13:04:49.481Z,1.40
2018-01-10T13:05:49.439Z,1.10
2018-01-10T13:06:49.450Z,1.10
2018-01-10T13:07:49.436Z,1.40
2018-01-10T13:08:49.433Z,1.10
2018-01-10T13:09:49.428Z,1.50
2018-01-10T13:10:49.426Z,1.40
2018-01-10T13:11:49.424Z,1.20
2018-01-10T13:12:49.421Z,1.10
2018-01-10T13:13:49.419Z,1.20
2018-01-10T13:14:49.414Z,1.20
2018-01-10T13:15:49.413Z,1.10
2018-01-10T13:16:49.411Z,1.50
2018-01-10T13:17:49.424Z,1.10
2018-01-10T13:18:49.404Z,1.30
2018-01-10T13:19:49.402Z,1.40
2018-01-10T13:20:49.400Z,1.00
2018-01-10T13:21:49.399Z,1.00